Terminal Aerodrome Forecast
Issued by NWS Wilmington, OH

Current Version | Previous Version | Graphics & Text | Print | Product List | Glossary On
Versions: 1 2 3 4 5 6 7 8 9 10 11 12 13 14 15 16 17 18 19 20
006
FTUS41 KILN 241456 AAA
TAFCVG
TAF AMD
KCVG 241456Z 2415/2518 06009KT P6SM SCT050 BKN200
     FM250400 10007KT P6SM BKN040
     FM250900 VRB03KT P6SM OVC025
     FM251300 14005KT P6SM SCT030=

USA.gov is the U.S. government's official web portal to all federal, state and local government web resources and services.